Time;durP1;ratioP1;P1;durP2;ratioP2;P2;SDS_P1;SDS_P2;PMS_P1;PMS_P2;Temp;Humidity;BMP_temperature;BMP_pressure;BME280_temperature;BME280_humidity;BME280_pressure;Samples;Min_cycle;Max_cycle;Signal;HPM_P1;HPM_P2
2020/12/19 00:00:46;;;;;;;11.47;7.57;;;;;;;-144.99;100.00;52578.53;5069899;28;20646;-71
2020/12/19 00:03:12;;;;;;;9.80;6.87;;;;;;;-144.99;100.00;52566.31;5067040;28;20726;-72
2020/12/19 00:05:38;;;;;;;11.33;7.77;;;;;;;-144.99;100.00;52570.38;5079461;28;20661;-72
2020/12/19 00:08:05;;;;;;;14.07;7.80;;;;;;;-144.99;100.00;52621.34;5070777;28;20713;-72
2020/12/19 00:10:31;;;;;;;11.00;6.87;;;;;;;-144.99;100.00;52578.53;5085613;28;20706;-72
2020/12/19 00:12:59;;;;;;;11.03;7.00;;;;;;;-144.99;100.00;52566.31;5068052;28;20778;-72
2020/12/19 00:15:27;;;;;;;10.87;7.97;;;;;;;-144.99;100.00;52562.25;5085534;28;20637;-72
2020/12/19 00:17:53;;;;;;;14.30;8.73;;;;;;;-144.99;100.00;52605.03;5086981;28;20679;-73
2020/12/19 00:20:19;;;;;;;12.10;7.83;;;;;;;-144.99;100.00;52617.28;5072581;28;20741;-73
2020/12/19 00:22:45;;;;;;;13.07;6.37;;;;;;;-144.99;100.00;52556.13;5067456;28;20655;-72
2020/12/19 00:25:12;;;;;;;10.57;7.67;;;;;;;-144.99;100.00;52566.31;5069783;28;21246;-72
2020/12/19 00:27:38;;;;;;;19.83;7.83;;;;;;;-144.99;100.00;52582.63;5074945;28;21014;-72
2020/12/19 00:30:05;;;;;;;10.90;7.67;;;;;;;-144.99;100.00;52545.94;5086021;28;20717;-72
2020/12/19 00:32:32;;;;;;;19.37;9.33;;;;;;;-144.99;100.00;52545.94;5087972;28;20678;-72
2020/12/19 00:34:58;;;;;;;12.70;8.57;;;;;;;-144.99;100.00;52590.78;5086766;28;20721;-73
2020/12/19 00:37:25;;;;;;;10.97;7.43;;;;;;;-144.99;100.00;52576.50;5086274;28;20626;-71
2020/12/19 00:39:52;;;;;;;11.97;8.77;;;;;;;-144.99;100.00;52607.09;5080599;28;20623;-71
2020/12/19 00:42:20;;;;;;;14.07;8.23;;;;;;;-144.99;100.00;52578.53;5080613;28;21297;-72
2020/12/19 00:44:46;;;;;;;10.73;8.10;;;;;;;-144.99;100.00;52550.00;5066516;28;20761;-73
2020/12/19 00:47:12;;;;;;;12.47;8.57;;;;;;;-144.99;100.00;52566.31;5077771;28;20626;-72
2020/12/19 00:49:39;;;;;;;14.10;10.43;;;;;;;-144.99;100.00;52570.38;5076487;28;20629;-72
2020/12/19 00:52:05;;;;;;;11.77;8.43;;;;;;;-144.99;100.00;52570.38;5083414;28;20668;-73
2020/12/19 00:54:31;;;;;;;10.43;7.57;;;;;;;-144.99;100.00;52623.38;5072378;28;20653;-73
2020/12/19 00:56:57;;;;;;;9.87;7.77;;;;;;;-144.99;100.00;52543.91;5061388;28;20729;-72
2020/12/19 00:59:23;;;;;;;9.70;6.93;;;;;;;-144.99;100.00;52580.59;5068396;28;21313;-72
2020/12/19 01:01:50;;;;;;;10.73;7.30;;;;;;;-144.99;100.00;52598.94;4718258;28;9999968;-71
2020/12/19 01:04:16;;;;;;;12.20;7.50;;;;;;;-144.99;100.00;52554.09;5066463;28;20224;-74
2020/12/19 01:06:43;;;;;;;11.10;7.03;;;;;;;-144.99;100.00;52570.38;5066607;28;20710;-72
2020/12/19 01:09:09;;;;;;;15.43;7.90;;;;;;;-144.99;100.00;52605.03;5066734;28;20789;-73
2020/12/19 01:11:37;;;;;;;10.10;7.47;;;;;;;-144.99;100.00;52578.53;5067417;28;20716;-72
2020/12/19 01:14:03;;;;;;;10.90;7.77;;;;;;;-144.99;100.00;52574.47;5075004;28;21257;-74
2020/12/19 01:16:30;;;;;;;18.00;9.70;;;;;;;-144.99;100.00;52572.44;5089184;28;20662;-74
2020/12/19 01:18:58;;;;;;;18.83;8.20;;;;;;;-144.99;100.00;52598.94;5085972;28;20669;-74
2020/12/19 01:21:26;;;;;;;14.20;8.20;;;;;;;-144.99;100.00;52550.00;5086481;28;20707;-73
2020/12/19 01:23:55;;;;;;;13.97;11.20;;;;;;;-144.99;100.00;52586.69;5090976;28;20721;-71
2020/12/19 01:26:21;;;;;;;12.13;7.27;;;;;;;-144.99;100.00;52570.38;5091008;28;21009;-72
2020/12/19 01:28:48;;;;;;;11.40;7.03;;;;;;;-144.99;100.00;52578.53;5092105;28;20717;-72
2020/12/19 01:31:16;;;;;;;11.83;9.90;;;;;;;-144.99;100.00;52603.00;5091481;28;21029;-72
2020/12/19 01:33:43;;;;;;;11.40;7.93;;;;;;;-144.99;100.00;52611.16;5090537;28;20617;-71
2020/12/19 01:36:10;;;;;;;12.70;8.13;;;;;;;-144.99;100.00;52554.09;5091357;28;20867;-72
2020/12/19 01:38:37;;;;;;;9.53;6.20;;;;;;;-144.99;100.00;52590.78;5092210;28;20626;-72
2020/12/19 01:41:05;;;;;;;11.13;8.57;;;;;;;-144.99;100.00;52582.63;5092596;28;20777;-73
2020/12/19 01:43:46;;;;;;;11.27;7.50;;;;;;;-144.99;100.00;52566.31;5093102;28;20626;-72
2020/12/19 01:46:13;;;;;;;9.70;7.43;;;;;;;-144.99;100.00;52586.69;5089352;28;20653;-72
2020/12/19 01:48:39;;;;;;;10.17;7.20;;;;;;;-144.99;100.00;52570.38;5089169;28;20706;-71
2020/12/19 01:51:06;;;;;;;13.43;9.53;;;;;;;-144.99;100.00;52627.47;5083588;28;20741;-72
2020/12/19 01:53:32;;;;;;;9.60;6.63;;;;;;;-144.99;100.00;52574.47;5068572;28;21203;-71
2020/12/19 01:55:59;;;;;;;12.77;6.83;;;;;;;-144.99;100.00;52596.88;5080804;28;20685;-73
2020/12/19 01:58:27;;;;;;;10.97;8.67;;;;;;;-144.99;100.00;52578.53;5068651;28;20709;-72
2020/12/19 02:00:56;;;;;;;10.53;7.53;;;;;;;-144.99;100.00;52611.16;5068075;28;20758;-72
2020/12/19 02:03:22;;;;;;;12.70;8.47;;;;;;;-144.99;100.00;52572.44;5068450;28;20615;-72
2020/12/19 02:05:52;;;;;;;12.70;8.60;;;;;;;-144.99;100.00;52615.25;5067727;28;21266;-72
2020/12/19 02:08:18;;;;;;;11.43;7.50;;;;;;;-144.99;100.00;52586.69;5067901;28;20705;-72
2020/12/19 02:10:45;;;;;;;11.90;7.83;;;;;;;-144.99;100.00;52570.38;5067928;28;20670;-71
2020/12/19 02:13:11;;;;;;;12.80;7.73;;;;;;;-144.99;100.00;52525.56;5067890;28;20649;-71
2020/12/19 02:15:43;;;;;;;11.77;8.07;;;;;;;-144.99;100.00;52545.94;5068365;28;20630;-74
2020/12/19 02:18:09;;;;;;;15.30;10.10;;;;;;;-144.99;100.00;52574.47;5068135;28;20907;-72
2020/12/19 02:20:35;;;;;;;8.63;7.53;;;;;;;-144.99;100.00;52590.78;5074670;28;20721;-74
2020/12/19 02:23:04;;;;;;;11.37;7.70;;;;;;;-144.99;100.00;52603.00;5088401;28;20730;-73
2020/12/19 02:25:32;;;;;;;13.87;8.70;;;;;;;-144.99;100.00;52578.53;5088906;28;20693;-73
2020/12/19 02:28:02;;;;;;;10.03;6.97;;;;;;;-144.99;100.00;52607.09;5088749;28;20693;-72
2020/12/19 02:30:28;;;;;;;12.63;7.10;;;;;;;-144.99;100.00;52611.16;5089609;28;21030;-73
2020/12/19 02:32:54;;;;;;;12.53;8.27;;;;;;;-144.99;100.00;52615.25;5091999;28;20658;-73
2020/12/19 02:35:20;;;;;;;12.87;9.13;;;;;;;-144.99;100.00;52586.69;5093887;28;20654;-72
2020/12/19 02:37:46;;;;;;;12.07;7.90;;;;;;;-144.99;100.00;52598.94;5093511;28;20752;-73
2020/12/19 02:40:12;;;;;;;10.37;7.33;;;;;;;-144.99;100.00;52603.00;5092003;28;20658;-73
2020/12/19 02:42:40;;;;;;;11.93;8.63;;;;;;;-144.99;100.00;52570.38;5092273;28;20673;-73
2020/12/19 02:45:06;;;;;;;11.13;8.03;;;;;;;-144.99;100.00;52611.16;5091867;28;20756;-72
2020/12/19 02:47:32;;;;;;;13.90;8.77;;;;;;;-144.99;100.00;52594.84;5091136;28;20704;-72
2020/12/19 02:49:58;;;;;;;10.57;8.10;;;;;;;-144.99;100.00;52584.66;5091876;28;20725;-73
2020/12/19 02:52:24;;;;;;;11.00;7.77;;;;;;;-144.99;100.00;52564.28;5074267;28;20686;-72
2020/12/19 02:54:51;;;;;;;10.20;7.83;;;;;;;-144.99;100.00;52578.53;5077488;28;20632;-72
2020/12/19 02:57:20;;;;;;;12.03;8.27;;;;;;;-144.99;100.00;52578.53;5076452;28;21176;-72
2020/12/19 02:59:47;;;;;;;14.07;8.57;;;;;;;-144.99;100.00;52582.63;5079166;28;20671;-72
2020/12/19 03:02:13;;;;;;;13.67;8.87;;;;;;;-144.99;100.00;52562.25;5091379;28;20848;-72
2020/12/19 03:04:39;;;;;;;16.00;9.50;;;;;;;-144.99;100.00;52566.31;5090782;28;20641;-73
2020/12/19 03:07:05;;;;;;;17.13;8.13;;;;;;;-144.99;100.00;52615.25;5091356;28;21167;-72
2020/12/19 03:09:31;;;;;;;18.90;8.80;;;;;;;-144.99;100.00;52588.75;5091487;28;21079;-72
2020/12/19 03:11:58;;;;;;;14.83;9.17;;;;;;;-144.99;100.00;52619.31;5090516;28;20693;-72
2020/12/19 03:14:24;;;;;;;11.87;9.43;;;;;;;-144.99;100.00;52598.94;5091340;28;20717;-72
2020/12/19 03:16:51;;;;;;;10.60;7.77;;;;;;;-144.99;100.00;52590.78;5090821;28;20629;-72
2020/12/19 03:19:19;;;;;;;11.53;8.87;;;;;;;-144.99;100.00;52578.53;5083038;28;20705;-73
2020/12/19 03:21:45;;;;;;;12.87;8.53;;;;;;;-144.99;100.00;52568.34;5084297;28;20689;-72
2020/12/19 03:24:11;;;;;;;13.73;10.40;;;;;;;-144.99;100.00;52562.25;5080362;28;20658;-73
2020/12/19 03:26:37;;;;;;;21.07;10.13;;;;;;;-144.99;100.00;52588.75;5090769;28;20687;-73
2020/12/19 03:29:03;;;;;;;12.07;9.07;;;;;;;-144.99;100.00;52564.28;5090709;28;20720;-73
2020/12/19 03:31:29;;;;;;;12.47;9.53;;;;;;;-144.99;100.00;52574.47;5074200;28;20750;-72
2020/12/19 03:33:56;;;;;;;11.67;9.00;;;;;;;-144.99;100.00;52570.38;5069855;28;20792;-72
2020/12/19 03:36:22;;;;;;;16.27;10.43;;;;;;;-144.99;100.00;52617.28;5070751;28;20704;-72
2020/12/19 03:38:48;;;;;;;13.33;9.73;;;;;;;-144.99;100.00;52603.00;5070313;28;20650;-73
2020/12/19 03:41:15;;;;;;;14.27;10.23;;;;;;;-144.99;100.00;52574.47;5070382;28;20928;-73
2020/12/19 03:43:41;;;;;;;14.17;10.93;;;;;;;-144.99;100.00;52590.78;5081310;28;20630;-74
2020/12/19 03:46:07;;;;;;;17.83;11.70;;;;;;;-144.99;100.00;52552.03;5090571;28;20752;-73
2020/12/19 03:48:33;;;;;;;16.00;10.60;;;;;;;-144.99;100.00;52590.78;5089371;28;20684;-74
2020/12/19 03:51:00;;;;;;;14.70;10.50;;;;;;;-144.99;100.00;52580.59;5086557;28;20800;-73
2020/12/19 03:53:26;;;;;;;17.07;13.77;;;;;;;-144.99;100.00;52586.69;5070776;28;20627;-73
2020/12/19 03:55:52;;;;;;;17.63;12.43;;;;;;;-144.99;100.00;52582.63;5078697;28;20617;-73
2020/12/19 03:58:18;;;;;;;15.03;10.37;;;;;;;-144.99;100.00;52550.00;5090458;28;21052;-74
2020/12/19 04:00:44;;;;;;;19.50;12.03;;;;;;;-144.99;100.00;52558.16;5090916;28;20807;-73
2020/12/19 04:03:10;;;;;;;17.10;9.90;;;;;;;-144.99;100.00;52586.69;5090123;28;20784;-72
2020/12/19 04:05:36;;;;;;;15.77;11.50;;;;;;;-144.99;100.00;52582.63;5090887;28;21303;-73
2020/12/19 04:08:04;;;;;;;14.67;10.70;;;;;;;-144.99;100.00;52574.47;5090650;28;20812;-73
2020/12/19 04:10:30;;;;;;;16.80;12.77;;;;;;;-144.99;100.00;52588.75;5090667;28;21031;-73
2020/12/19 04:12:56;;;;;;;17.80;11.67;;;;;;;-144.99;100.00;52594.84;5079759;28;21245;-73
2020/12/19 04:15:23;;;;;;;17.00;13.60;;;;;;;-144.99;100.00;52570.38;5087091;28;20718;-72
2020/12/19 04:17:50;;;;;;;14.33;11.60;;;;;;;-144.99;100.00;52598.94;5088867;28;20622;-72
2020/12/19 04:20:16;;;;;;;20.23;12.17;;;;;;;-144.99;100.00;52558.16;5078335;28;20725;-72
2020/12/19 04:22:42;;;;;;;14.57;11.03;;;;;;;-144.99;100.00;52578.53;5089840;28;20703;-72
2020/12/19 04:25:10;;;;;;;16.67;12.10;;;;;;;-144.99;100.00;52558.16;5089698;28;20701;-72
2020/12/19 04:27:36;;;;;;;14.90;10.93;;;;;;;-144.99;100.00;52594.84;5089850;28;21015;-72
2020/12/19 04:30:04;;;;;;;16.10;12.77;;;;;;;-144.99;100.00;52545.94;5089319;28;20614;-73
2020/12/19 04:32:30;;;;;;;16.20;11.90;;;;;;;-144.99;100.00;52574.47;5089721;28;20742;-72
2020/12/19 04:34:56;;;;;;;16.57;12.63;;;;;;;-144.99;100.00;52590.78;5071375;28;20695;-72
2020/12/19 04:37:22;;;;;;;18.83;13.33;;;;;;;-144.99;100.00;52582.63;5069609;28;20982;-72
2020/12/19 04:39:49;;;;;;;18.47;12.93;;;;;;;-144.99;100.00;52594.84;5069035;28;21248;-73
2020/12/19 04:42:16;;;;;;;15.23;12.93;;;;;;;-144.99;100.00;52600.97;5068968;28;21112;-72
2020/12/19 04:44:42;;;;;;;16.20;11.67;;;;;;;-144.99;100.00;52590.78;5068431;28;20654;-72
2020/12/19 04:47:08;;;;;;;16.00;12.87;;;;;;;-144.99;100.00;52582.63;5069165;28;20731;-72
2020/12/19 04:49:36;;;;;;;18.40;13.53;;;;;;;-144.99;100.00;52547.97;5082621;28;20726;-71
2020/12/19 04:52:03;;;;;;;16.77;12.87;;;;;;;-144.99;100.00;52603.00;5078641;28;20696;-72
2020/12/19 04:54:30;;;;;;;17.20;13.10;;;;;;;-144.99;100.00;52582.63;5071724;28;20615;-72
2020/12/19 04:56:56;;;;;;;19.40;13.40;;;;;;;-144.99;100.00;52562.25;5078330;28;20619;-73
2020/12/19 04:59:23;;;;;;;18.77;12.73;;;;;;;-144.99;100.00;52611.16;5068548;28;20722;-72
2020/12/19 05:01:49;;;;;;;18.87;14.03;;;;;;;-144.99;100.00;52554.09;5068972;28;20748;-73
2020/12/19 05:04:15;;;;;;;21.73;14.43;;;;;;;-144.99;100.00;52562.25;5068994;28;20619;-73
2020/12/19 05:06:42;;;;;;;16.60;12.13;;;;;;;-144.99;100.00;52578.53;5081367;28;20711;-73
2020/12/19 05:09:09;;;;;;;22.87;13.43;;;;;;;-144.99;100.00;52582.63;5089101;28;21195;-73
2020/12/19 05:11:36;;;;;;;20.30;13.97;;;;;;;-144.99;100.00;52566.31;5090041;28;20634;-73
2020/12/19 05:14:04;;;;;;;18.30;14.53;;;;;;;-144.99;100.00;52586.69;5075561;28;20634;-74
2020/12/19 05:16:32;;;;;;;24.03;14.93;;;;;;;-144.99;100.00;52603.00;5090270;28;20721;-73
2020/12/19 05:19:06;;;;;;;19.00;14.53;;;;;;;-144.99;100.00;52558.16;5084473;28;20729;-73
2020/12/19 05:21:34;;;;;;;16.87;13.43;;;;;;;-144.99;100.00;52611.16;5084584;28;20756;-73
2020/12/19 05:24:00;;;;;;;21.30;14.83;;;;;;;-144.99;100.00;52570.38;5089517;28;21046;-73
2020/12/19 05:26:29;;;;;;;16.13;12.90;;;;;;;-144.99;100.00;52568.34;5088784;28;21096;-73
2020/12/19 05:28:59;;;;;;;17.37;13.83;;;;;;;-144.99;100.00;52574.47;5079190;28;20643;-74
2020/12/19 05:31:25;;;;;;;20.37;13.87;;;;;;;-144.99;100.00;52590.78;5086243;28;20848;-73
2020/12/19 05:33:52;;;;;;;17.67;13.80;;;;;;;-144.99;100.00;52627.47;5089418;28;20668;-73
2020/12/19 05:36:21;;;;;;;19.00;15.33;;;;;;;-144.99;100.00;52617.28;5089403;28;21110;-71
2020/12/19 05:38:48;;;;;;;18.63;15.77;;;;;;;-144.99;100.00;52552.03;5088476;28;20630;-72
2020/12/19 05:41:15;;;;;;;20.47;17.47;;;;;;;-144.99;100.00;52566.31;5088992;28;20699;-71
2020/12/19 05:43:48;;;;;;;18.10;13.60;;;;;;;-144.99;100.00;52558.16;5088712;28;20988;-72
2020/12/19 05:46:26;;;;;;;19.03;14.57;;;;;;;-144.99;100.00;52582.63;5088872;28;20687;-72
2020/12/19 05:48:54;;;;;;;19.47;14.47;;;;;;;-144.99;100.00;52558.16;5088588;28;20709;-71
2020/12/19 05:51:20;;;;;;;16.73;12.47;;;;;;;-144.99;100.00;52598.94;5081847;28;20746;-72
2020/12/19 05:53:51;;;;;;;18.47;13.57;;;;;;;-144.99;100.00;52574.47;5069392;28;20622;-72
2020/12/19 05:56:18;;;;;;;18.80;13.87;;;;;;;-144.99;100.00;52580.59;5081461;28;20623;-72
2020/12/19 05:58:46;;;;;;;22.20;16.43;;;;;;;-144.99;100.00;52547.97;5081432;28;20654;-72
2020/12/19 06:01:14;;;;;;;20.50;13.90;;;;;;;-144.99;100.00;52588.75;5088807;28;20646;-72
2020/12/19 06:03:44;;;;;;;20.50;16.13;;;;;;;-144.99;100.00;52578.53;5088287;28;21455;-72
2020/12/19 06:06:12;;;;;;;20.03;13.77;;;;;;;-144.99;100.00;52566.31;5090148;28;21102;-73
2020/12/19 06:08:39;;;;;;;21.93;15.03;;;;;;;-144.99;100.00;52574.47;5093203;28;20641;-73
2020/12/19 06:11:09;;;;;;;19.87;15.77;;;;;;;-144.99;100.00;52586.69;5093030;28;21250;-72
2020/12/19 06:13:39;;;;;;;21.17;15.93;;;;;;;-144.99;100.00;52554.09;5092858;28;20721;-74
2020/12/19 06:16:10;;;;;;;21.10;15.63;;;;;;;-144.99;100.00;52600.97;5092474;28;20673;-74
2020/12/19 06:18:45;;;;;;;18.60;13.83;;;;;;;-144.99;100.00;52582.63;5090287;28;20648;-75
2020/12/19 06:21:13;;;;;;;20.70;14.07;;;;;;;-144.99;100.00;52598.94;5084297;28;21033;-73
2020/12/19 06:23:40;;;;;;;26.93;15.23;;;;;;;-144.99;100.00;52584.66;5092776;28;20966;-73
2020/12/19 06:26:07;;;;;;;20.73;15.27;;;;;;;-144.99;100.00;52541.84;5092406;28;20753;-75
2020/12/19 06:28:48;;;;;;;21.13;17.67;;;;;;;-144.99;100.00;52562.25;5092315;28;20634;-75
2020/12/19 06:31:17;;;;;;;21.07;15.53;;;;;;;-144.99;100.00;52572.44;5091095;28;20673;-75
2020/12/19 06:33:46;;;;;;;24.10;16.30;;;;;;;-144.99;100.00;52619.31;5072288;28;20743;-74
2020/12/19 06:36:21;;;;;;;25.17;17.60;;;;;;;-144.99;100.00;52590.78;5071755;28;20615;-73
2020/12/19 06:38:49;;;;;;;25.33;19.90;;;;;;;-144.99;100.00;52533.69;5071595;28;20662;-74
2020/12/19 06:41:44;;;;;;;28.90;20.07;;;;;;;-144.99;100.00;52594.84;5071620;28;20750;-74
2020/12/19 06:44:12;;;;;;;31.20;23.63;;;;;;;-144.99;100.00;52594.84;5071995;28;20615;-73
2020/12/19 06:46:39;;;;;;;30.10;21.00;;;;;;;-144.99;100.00;52541.84;5071894;28;20757;-73
2020/12/19 06:49:31;;;;;;;24.70;17.47;;;;;;;-144.99;100.00;52574.47;5076896;28;20632;-73
2020/12/19 06:52:04;;;;;;;23.90;18.33;;;;;;;-144.99;100.00;52547.97;5074041;28;20669;-73
2020/12/19 06:54:32;;;;;;;23.77;15.87;;;;;;;-144.99;100.00;52570.38;5074378;28;20742;-73
2020/12/19 06:56:58;;;;;;;21.80;15.97;;;;;;;-144.99;100.00;52586.69;5079885;28;20647;-73
2020/12/19 06:59:26;;;;;;;20.77;16.03;;;;;;;-144.99;100.00;52574.47;5071297;28;20650;-73
2020/12/19 07:01:52;;;;;;;22.77;17.13;;;;;;;-144.99;100.00;52594.84;5073143;28;20655;-71
2020/12/19 07:04:34;;;;;;;20.07;15.07;;;;;;;-144.99;100.00;52590.78;5072497;28;21183;-71
2020/12/19 07:07:03;;;;;;;20.30;15.17;;;;;;;-144.99;100.00;52533.69;5072502;28;20633;-71
2020/12/19 07:09:30;;;;;;;22.10;15.80;;;;;;;-144.99;100.00;52582.63;5072122;28;20642;-71
2020/12/19 07:11:56;;;;;;;23.43;16.43;;;;;;;-144.99;100.00;52590.78;5073000;28;20650;-72
2020/12/19 07:14:22;;;;;;;22.10;18.13;;;;;;;-144.99;100.00;52584.66;5092366;28;20689;-71
2020/12/19 07:16:49;;;;;;;22.67;17.77;;;;;;;-144.99;100.00;52594.84;5090539;28;20618;-72
2020/12/19 07:19:27;;;;;;;19.43;14.37;;;;;;;-144.99;100.00;52588.75;5083682;28;20733;-71
2020/12/19 07:21:54;;;;;;;21.07;17.40;;;;;;;-144.99;100.00;52592.81;5088298;28;20980;-71
2020/12/19 07:24:22;;;;;;;26.00;15.53;;;;;;;-144.99;100.00;52586.69;5093299;28;20642;-73
2020/12/19 07:26:50;;;;;;;19.30;15.80;;;;;;;-144.99;100.00;52570.38;5093811;28;20733;-72
2020/12/19 07:29:18;;;;;;;19.57;14.33;;;;;;;-144.99;100.00;52541.84;5094081;28;20675;-73
2020/12/19 07:31:50;;;;;;;21.40;15.40;;;;;;;-144.99;100.00;52611.16;5093945;28;20874;-73
2020/12/19 07:34:17;;;;;;;20.80;15.83;;;;;;;-144.99;100.00;52566.31;5093370;28;20622;-72
2020/12/19 07:36:45;;;;;;;19.80;15.83;;;;;;;-144.99;100.00;52570.38;5093923;28;20625;-72
2020/12/19 07:39:12;;;;;;;21.27;16.07;;;;;;;-144.99;100.00;52562.25;5093175;28;20645;-72
2020/12/19 07:41:43;;;;;;;24.13;16.60;;;;;;;-144.99;100.00;52582.63;5092710;28;20658;-73
2020/12/19 07:44:19;;;;;;;20.27;14.53;;;;;;;-144.99;100.00;52545.94;5091976;28;20634;-72
2020/12/19 07:46:50;;;;;;;19.83;15.17;;;;;;;-144.99;100.00;52545.94;5093960;28;20840;-74
2020/12/19 07:49:37;;;;;;;25.23;17.20;;;;;;;-144.99;100.00;52558.16;5092862;28;21166;-73
2020/12/19 07:52:10;;;;;;;23.60;15.40;;;;;;;-144.99;100.00;52570.38;5076037;28;20988;-73
2020/12/19 07:54:38;;;;;;;22.43;17.03;;;;;;;-144.99;100.00;52635.63;5077337;28;20705;-71
2020/12/19 07:57:06;;;;;;;21.50;15.73;;;;;;;-144.99;100.00;52578.53;5075643;28;21038;-74
2020/12/19 07:59:34;;;;;;;20.27;15.97;;;;;;;-144.99;100.00;52505.16;5073430;28;21135;-74
2020/12/19 08:02:03;;;;;;;23.47;16.80;;;;;;;-144.99;100.00;52584.66;5072969;28;20766;-73
2020/12/19 08:04:31;;;;;;;21.17;14.93;;;;;;;-144.99;100.00;52550.00;5078961;28;20614;-73
2020/12/19 08:06:58;;;;;;;18.30;14.43;;;;;;;-144.99;100.00;52550.00;5090586;28;20625;-71
2020/12/19 08:09:25;;;;;;;22.23;15.40;;;;;;;-144.99;100.00;52574.47;5090296;28;21187;-73
2020/12/19 08:11:52;;;;;;;18.77;15.63;;;;;;;-144.99;100.00;52598.94;5089023;28;20676;-74
2020/12/19 08:14:21;;;;;;;19.47;15.10;;;;;;;-144.99;100.00;52568.34;5078518;28;20642;-73
2020/12/19 08:16:48;;;;;;;22.93;16.87;;;;;;;-144.99;100.00;52529.63;5090061;28;20725;-73
2020/12/19 08:19:22;;;;;;;21.20;15.27;;;;;;;-144.99;100.00;52541.84;5080177;28;21186;-72
2020/12/19 08:21:57;;;;;;;17.10;13.27;;;;;;;-144.99;100.00;52541.84;5087409;28;21244;-72
2020/12/19 08:24:23;;;;;;;22.47;15.10;;;;;;;-144.99;100.00;52574.47;5089955;28;20645;-72
2020/12/19 08:26:50;;;;;;;21.17;15.13;;;;;;;-144.99;100.00;52537.78;5090555;28;20806;-75
2020/12/19 08:29:16;;;;;;;22.63;16.13;;;;;;;-144.99;100.00;52609.13;5088799;28;20622;-73
2020/12/19 08:31:43;;;;;;;20.13;15.43;;;;;;;-144.99;100.00;52529.63;5090194;28;20722;-72
2020/12/19 08:34:11;;;;;;;19.90;14.13;;;;;;;-144.99;100.00;52586.69;5090012;28;20621;-73
2020/12/19 08:36:46;;;;;;;19.37;13.50;;;;;;;-144.99;100.00;52541.84;5090552;28;20718;-73
2020/12/19 08:39:16;;;;;;;19.10;13.97;;;;;;;-144.99;100.00;52554.09;5092791;28;20635;-73
2020/12/19 08:41:42;;;;;;;16.93;12.90;;;;;;;-144.99;100.00;52541.84;5092244;28;21061;-73
2020/12/19 08:44:22;;;;;;;19.67;12.83;;;;;;;-144.99;100.00;52545.94;5091341;28;20649;-72
2020/12/19 08:47:01;;;;;;;22.30;14.90;;;;;;;-144.99;100.00;52517.41;5093098;28;20618;-74
2020/12/19 08:49:27;;;;;;;18.67;13.10;;;;;;;-144.99;100.00;52545.94;5088333;28;21434;-73
2020/12/19 08:51:54;;;;;;;18.40;16.33;;;;;;;-144.99;100.00;52529.63;5080489;28;20772;-71
2020/12/19 08:54:22;;;;;;;18.90;13.87;;;;;;;-144.99;100.00;52525.56;5087095;28;20633;-71
2020/12/19 08:56:49;;;;;;;19.40;12.90;;;;;;;-144.99;100.00;52545.94;5078984;28;20627;-71
2020/12/19 08:59:24;;;;;;;15.67;12.70;;;;;;;-144.99;100.00;52529.63;5073465;28;20678;-73
2020/12/19 09:01:53;;;;;;;19.40;15.90;;;;;;;-144.99;100.00;52545.94;5091293;28;20649;-72
2020/12/19 09:04:20;;;;;;;17.97;15.63;;;;;;;-144.99;100.00;52558.16;5089643;28;20665;-73
2020/12/19 09:06:46;;;;;;;19.60;14.40;;;;;;;-144.99;100.00;52523.50;5089259;28;21318;-72
2020/12/19 09:09:17;;;;;;;15.00;11.23;;;;;;;-144.99;100.00;52525.56;5089179;28;20633;-72
2020/12/19 09:11:43;;;;;;;17.13;12.00;;;;;;;-144.99;100.00;52529.63;5089683;28;20646;-71
2020/12/19 09:14:10;;;;;;;19.93;12.57;;;;;;;-144.99;100.00;52521.47;5089213;28;20633;-72
2020/12/19 09:16:46;;;;;;;17.03;12.83;;;;;;;-144.99;99.46;52525.56;5089276;28;20634;-73
2020/12/19 09:19:13;;;;;;;17.80;15.97;;;;;;;-144.99;99.60;52515.34;5082408;28;21043;-71
2020/12/19 09:21:40;;;;;;;16.73;12.30;;;;;;;-144.99;97.97;52541.84;5084757;28;20361;-73
2020/12/19 09:24:06;;;;;;;16.20;12.23;;;;;;;-144.99;97.54;52517.41;5089878;28;20665;-71
2020/12/19 09:26:32;;;;;;;16.23;12.23;;;;;;;-144.99;97.38;52529.63;5089276;28;20744;-71
2020/12/19 09:28:58;;;;;;;17.73;12.93;;;;;;;-144.99;95.48;52521.47;5090287;28;20314;-76
2020/12/19 09:31:26;;;;;;;18.83;14.87;;;;;;;-144.99;94.95;52497.00;5089908;28;20316;-71
2020/12/19 09:33:52;;;;;;;18.40;11.50;;;;;;;-144.99;93.19;52515.34;5092044;28;20561;-71
2020/12/19 09:36:19;;;;;;;20.03;16.23;;;;;;;-144.99;93.18;52527.59;5077149;28;20204;-73
2020/12/19 09:38:45;;;;;;;21.07;15.00;;;;;;;-144.99;91.26;52509.25;5089962;28;20287;-71
2020/12/19 09:41:11;;;;;;;15.13;11.40;;;;;;;-144.99;91.07;52476.63;5093480;28;20705;-73
2020/12/19 09:43:39;;;;;;;17.40;12.60;;;;;;;-144.99;90.67;52497.00;5094075;28;20245;-74
2020/12/19 09:46:05;;;;;;;15.20;11.00;;;;;;;-144.99;88.72;52484.78;5094147;28;20306;-70
2020/12/19 09:48:31;;;;;;;18.40;12.20;;;;;;;-144.99;87.39;52509.25;5092660;28;20269;-71
2020/12/19 09:50:57;;;;;;;14.83;11.33;;;;;;;-144.99;87.04;52533.69;5091802;28;20202;-73
2020/12/19 09:53:24;;;;;;;12.60;10.43;;;;;;;-144.99;86.14;52480.72;5075116;28;20291;-72
2020/12/19 09:55:50;;;;;;;14.53;12.13;;;;;;;-144.99;84.36;52492.94;5087302;28;20228;-72
2020/12/19 09:58:16;;;;;;;16.60;13.30;;;;;;;-144.99;84.33;52462.34;5073689;28;20236;-72
2020/12/19 10:00:45;;;;;;;18.30;13.00;;;;;;;-144.99;82.29;52497.00;5075294;28;20730;-72
2020/12/19 10:03:11;;;;;;;18.97;13.90;;;;;;;-144.99;82.24;52488.84;5077350;28;20287;-71
2020/12/19 10:05:37;;;;;;;17.70;13.83;;;;;;;-144.99;81.72;52460.31;5091659;28;20367;-72
2020/12/19 10:08:03;;;;;;;18.33;12.07;;;;;;;-144.99;79.48;52484.78;5095475;28;20351;-72
2020/12/19 10:10:30;;;;;;;16.00;11.90;;;;;;;-144.99;78.44;52468.47;5092293;28;20251;-73
2020/12/19 10:12:57;;;;;;;20.43;16.27;;;;;;;-144.99;76.42;52464.41;5091803;28;20272;-71
2020/12/19 10:15:23;;;;;;;18.33;15.87;;;;;;;-144.99;73.24;52419.56;5092631;28;20232;-73
2020/12/19 10:17:49;;;;;;;15.23;11.77;;;;;;;-144.99;72.72;52419.56;5091783;28;20232;-72
2020/12/19 10:20:15;;;;;;;14.83;10.77;;;;;;;-144.99;72.22;52413.44;5080931;28;20693;-74
2020/12/19 10:22:41;;;;;;;13.47;11.17;;;;;;;-144.99;72.69;52366.56;5093815;28;20471;-71
2020/12/19 10:25:10;;;;;;;13.17;10.57;;;;;;;-144.99;74.40;52364.53;5092740;28;20262;-72
2020/12/19 10:27:37;;;;;;;19.40;16.10;;;;;;;-144.99;73.16;52374.72;5092504;28;20211;-73
2020/12/19 10:30:04;;;;;;;21.23;14.93;;;;;;;-144.99;73.32;52413.44;5092405;28;20792;-73
2020/12/19 10:32:30;;;;;;;15.73;13.03;;;;;;;-144.99;72.73;52452.16;5093440;28;20328;-75
2020/12/19 10:34:56;;;;;;;13.77;11.70;;;;;;;-144.99;70.49;52386.94;5092747;28;20295;-74
2020/12/19 10:37:22;;;;;;;14.40;10.60;;;;;;;-144.99;68.24;52386.94;5092391;28;20215;-73
2020/12/19 10:39:48;;;;;;;13.47;10.97;;;;;;;-144.99;67.50;52362.50;5091872;28;20852;-74
2020/12/19 10:42:14;;;;;;;13.13;10.93;;;;;;;-144.99;65.47;52356.38;5092023;28;20254;-72
2020/12/19 10:44:41;;;;;;;16.47;12.10;;;;;;;-144.99;64.03;52366.56;5091812;28;20906;-72
2020/12/19 10:47:08;;;;;;;13.73;10.90;;;;;;;-144.99;64.12;52333.94;5092143;28;20231;-72
2020/12/19 10:49:34;;;;;;;16.27;10.87;;;;;;;-144.99;65.48;52333.94;5088712;28;20292;-72
2020/12/19 10:52:03;;;;;;;17.33;12.17;;;;;;;-144.99;64.65;52321.72;5080609;28;20278;-73
2020/12/19 10:54:29;;;;;;;17.47;11.83;;;;;;;-144.99;64.51;52313.56;5075116;28;20231;-72
2020/12/19 10:56:56;;;;;;;14.10;10.83;;;;;;;-144.99;67.45;52325.81;5080420;28;20197;-73
2020/12/19 10:59:22;;;;;;;18.50;13.97;;;;;;;-144.99;67.04;52338.03;5071448;28;20749;-72